Dayton, Ohio
Current Conditions -  °F | °C
As of 6:58 PM on Friday 24 Oct 2014 (Local Time) from KFFO Reporting Station
Clear Clear  
Wind Chill: 13°   Ceiling: Unl
Heat Index: 13°   Visibility: 10mi
Dew Point:   Wind: 6mph
Humidity: 59%   Direction: 190°S
Pressure: 30.02"   Gusts: NA
Location:  39.76°N, 84.19°W
Report Text: KFFO 242258Z AUTO 19005KT 10SM CLR 13/05 A3002 RMK AO2 SLP171 T01250047
Loading
Personal Weather Stations






























Interactive Weather Map New forecast layout! Learn more

10-Day Weather Forecast

Advertisements
Track Severe Weather on mobile